Time;durP1;ratioP1;P1;durP2;ratioP2;P2;SDS_P1;SDS_P2;PMS_P1;PMS_P2;Temp;Humidity;BMP_temperature;BMP_pressure;BME280_temperature;BME280_humidity;BME280_pressure;Samples;Min_cycle;Max_cycle;Signal;HPM_P1;HPM_P2
2023/06/10 00:01:15;;;;;;;8.57;3.33;;;22.30;99.90;;;;;;5014102;28;20050;-79
2023/06/10 00:03:43;;;;;;;5.30;3.10;;;22.30;99.90;;;;;;5008286;28;20057;-80
2023/06/10 00:06:10;;;;;;;5.30;3.45;;;22.30;99.90;;;;;;5005926;28;20065;-80
2023/06/10 00:08:37;;;;;;;4.25;3.20;;;22.30;99.90;;;;;;5008318;28;20491;-79
2023/06/10 00:11:04;;;;;;;3.97;3.58;;;22.30;99.90;;;;;;5010083;28;20046;-80
2023/06/10 00:13:30;;;;;;;6.35;4.80;;;22.30;99.90;;;;;;5009029;28;20502;-80
2023/06/10 00:15:57;;;;;;;5.20;4.03;;;22.20;99.90;;;;;;5007180;28;20038;-79
2023/06/10 00:18:26;;;;;;;5.22;3.42;;;22.20;99.90;;;;;;5007542;28;20105;-79
2023/06/10 00:20:54;;;;;;;5.90;3.88;;;22.20;99.90;;;;;;5006392;28;20062;-80
2023/06/10 00:23:22;;;;;;;3.92;3.33;;;22.10;99.90;;;;;;5003654;28;20069;-80
2023/06/10 00:25:49;;;;;;;5.00;3.67;;;22.10;99.90;;;;;;5017810;28;20077;-80
2023/06/10 00:28:15;;;;;;;7.32;3.42;;;22.10;99.90;;;;;;4999636;28;20061;-80
2023/06/10 00:30:42;;;;;;;3.95;3.25;;;22.00;99.90;;;;;;5008027;28;20070;-81
2023/06/10 00:33:10;;;;;;;3.83;3.40;;;22.00;99.90;;;;;;5005759;28;20069;-80
2023/06/10 00:35:36;;;;;;;4.32;3.10;;;22.00;99.90;;;;;;5007153;28;20489;-81
2023/06/10 00:38:03;;;;;;;4.50;3.53;;;22.00;99.90;;;;;;5009977;28;20053;-80
2023/06/10 00:40:30;;;;;;;6.85;3.60;;;21.90;99.90;;;;;;5008773;28;20073;-80
2023/06/10 00:42:57;;;;;;;5.60;3.60;;;21.90;99.90;;;;;;5010042;28;20049;-80
2023/06/10 00:45:23;;;;;;;4.93;3.42;;;21.90;99.90;;;;;;5008051;28;20070;-80
2023/06/10 00:47:50;;;;;;;4.47;3.80;;;21.90;99.90;;;;;;5005341;28;20065;-80
2023/06/10 00:50:17;;;;;;;4.10;3.20;;;21.80;99.90;;;;;;5005098;28;20065;-80
2023/06/10 00:52:46;;;;;;;5.20;3.40;;;21.80;99.90;;;;;;5008540;28;20097;-79
2023/06/10 00:55:13;;;;;;;4.00;3.60;;;21.80;99.90;;;;;;5001789;28;20058;-79
2023/06/10 00:57:39;;;;;;;4.82;3.67;;;21.70;99.90;;;;;;5000539;28;20042;-80
2023/06/10 01:00:08;;;;;;;6.10;3.80;;;21.70;99.90;;;;;;5006329;28;20050;-79
2023/06/10 01:02:35;;;;;;;4.05;3.30;;;21.70;99.90;;;;;;5005752;28;20046;-80
2023/06/10 01:05:03;;;;;;;5.45;3.88;;;21.60;99.90;;;;;;5002981;28;20050;-79
2023/06/10 01:07:54;;;;;;;4.15;3.60;;;21.60;99.90;;;;;;5009318;28;20529;-80
2023/06/10 01:10:35;;;;;;;5.95;3.90;;;21.60;99.90;;;;;;5006688;28;20076;-80
2023/06/10 01:13:03;;;;;;;4.32;3.42;;;21.50;99.90;;;;;;5021553;28;20042;-80
2023/06/10 01:15:31;;;;;;;5.20;4.10;;;21.50;99.90;;;;;;5007611;28;20109;-79
2023/06/10 01:18:03;;;;;;;4.53;3.80;;;21.50;99.90;;;;;;5003751;28;20468;-80
2023/06/10 01:20:32;;;;;;;5.07;3.55;;;21.40;99.90;;;;;;5004408;28;20050;-80
2023/06/10 01:23:00;;;;;;;7.35;3.55;;;21.40;99.90;;;;;;5014030;28;20275;-79
2023/06/10 01:25:28;;;;;;;4.88;4.38;;;21.40;99.90;;;;;;4999737;28;20050;-80
2023/06/10 01:28:08;;;;;;;4.43;3.53;;;21.30;99.90;;;;;;5002463;28;20414;-80
2023/06/10 01:31:02;;;;;;;4.68;3.80;;;21.30;99.90;;;;;;5014381;28;20046;-80
2023/06/10 01:33:33;;;;;;;4.05;3.63;;;21.20;99.90;;;;;;4985606;28;20050;-80
2023/06/10 01:36:01;;;;;;;4.15;3.50;;;21.20;99.90;;;;;;5017828;28;20478;-79
2023/06/10 01:38:33;;;;;;;5.60;3.72;;;21.10;99.90;;;;;;5025934;28;20046;-80
2023/06/10 01:41:00;;;;;;;3.95;3.55;;;21.10;99.90;;;;;;5011009;28;20050;-79
2023/06/10 01:43:27;;;;;;;4.47;3.67;;;21.10;99.90;;;;;;5015157;28;20050;-79
2023/06/10 01:45:53;;;;;;;3.75;3.42;;;21.10;99.90;;;;;;5010849;28;20057;-80
2023/06/10 01:48:20;;;;;;;5.53;3.85;;;21.00;99.90;;;;;;5003454;28;20054;-80
2023/06/10 01:50:47;;;;;;;4.72;3.85;;;21.00;99.90;;;;;;5001740;28;20213;-80
2023/06/10 01:53:14;;;;;;;3.92;3.50;;;21.00;99.90;;;;;;5007803;28;20096;-79
2023/06/10 01:55:40;;;;;;;4.32;3.53;;;20.90;99.90;;;;;;5006030;28;20054;-79
2023/06/10 01:58:07;;;;;;;5.18;4.00;;;20.90;99.90;;;;;;5010020;28;20078;-80
2023/06/10 02:00:34;;;;;;;4.03;3.60;;;20.90;99.90;;;;;;5011633;28;20129;-79
2023/06/10 02:03:00;;;;;;;5.43;3.20;;;20.80;99.90;;;;;;5011819;28;20052;-79
2023/06/10 02:05:27;;;;;;;7.97;3.72;;;20.80;99.90;;;;;;5009405;28;20046;-79
2023/06/10 02:07:54;;;;;;;5.30;3.70;;;20.80;99.90;;;;;;5012025;28;20054;-80
2023/06/10 02:10:21;;;;;;;4.40;3.88;;;20.80;99.90;;;;;;5006848;28;20109;-80
2023/06/10 02:12:48;;;;;;;4.28;3.50;;;20.70;99.90;;;;;;5011029;28;20042;-80
2023/06/10 02:15:14;;;;;;;6.78;4.05;;;20.60;99.90;;;;;;5009391;28;20045;-80
2023/06/10 02:17:41;;;;;;;5.50;3.40;;;20.60;99.90;;;;;;5006805;28;20078;-79
2023/06/10 02:20:10;;;;;;;5.03;3.65;;;20.60;99.90;;;;;;5005499;28;20050;-81
2023/06/10 02:22:37;;;;;;;4.63;3.33;;;20.50;99.90;;;;;;5007644;28;20050;-79
2023/06/10 02:25:05;;;;;;;4.63;3.63;;;20.50;99.90;;;;;;5004988;28;20115;-79
2023/06/10 02:27:32;;;;;;;7.95;3.40;;;20.50;99.90;;;;;;5006571;28;20057;-79
2023/06/10 02:29:59;;;;;;;5.05;3.40;;;20.50;99.90;;;;;;5018800;28;20046;-80
2023/06/10 02:32:26;;;;;;;4.00;3.30;;;20.40;99.90;;;;;;5015814;28;20046;-80
2023/06/10 02:34:53;;;;;;;4.63;3.83;;;20.40;99.90;;;;;;5016866;28;20137;-79
2023/06/10 02:37:20;;;;;;;8.02;3.65;;;20.40;99.90;;;;;;5005361;28;20046;-79
2023/06/10 02:39:47;;;;;;;3.53;3.20;;;20.30;99.90;;;;;;5018097;28;20058;-78
2023/06/10 02:42:14;;;;;;;4.68;3.47;;;20.30;99.90;;;;;;5006445;28;20054;-79
2023/06/10 02:44:40;;;;;;;5.07;3.40;;;20.30;99.90;;;;;;5005288;28;20082;-79
2023/06/10 02:47:07;;;;;;;5.38;3.85;;;20.30;99.90;;;;;;5001924;28;20050;-78
2023/06/10 02:49:34;;;;;;;5.75;3.55;;;20.20;99.90;;;;;;4995901;28;20081;-79
2023/06/10 02:52:01;;;;;;;4.18;3.50;;;20.20;99.90;;;;;;5001926;28;20105;-78
2023/06/10 02:54:27;;;;;;;4.13;3.72;;;20.10;99.90;;;;;;5010591;28;20482;-78
2023/06/10 02:56:55;;;;;;;4.18;3.38;;;20.10;99.90;;;;;;5001384;28;20494;-78
2023/06/10 02:59:22;;;;;;;4.95;3.67;;;20.10;99.90;;;;;;5010253;28;20129;-79
2023/06/10 03:01:49;;;;;;;3.92;3.30;;;20.00;99.90;;;;;;5011570;28;20141;-79
2023/06/10 03:04:16;;;;;;;4.70;3.95;;;20.00;99.90;;;;;;5010117;28;20057;-80
2023/06/10 03:06:42;;;;;;;4.75;3.88;;;20.00;99.90;;;;;;5010919;28;20141;-80
2023/06/10 03:09:10;;;;;;;5.85;4.20;;;19.90;99.90;;;;;;5007818;28;20053;-79
2023/06/10 03:11:36;;;;;;;5.70;3.60;;;19.90;99.90;;;;;;5009632;28;20049;-80
2023/06/10 03:14:03;;;;;;;6.38;4.00;;;19.90;99.90;;;;;;5012518;28;20617;-80
2023/06/10 03:16:31;;;;;;;4.80;3.60;;;19.80;99.90;;;;;;5007567;28;20553;-78
2023/06/10 03:18:58;;;;;;;5.18;3.72;;;19.80;99.90;;;;;;4998487;28;20537;-79
2023/06/10 03:21:25;;;;;;;4.88;3.72;;;19.80;99.90;;;;;;4998786;28;20053;-78
2023/06/10 03:23:52;;;;;;;4.35;3.75;;;19.80;99.90;;;;;;5003367;28;20369;-80
2023/06/10 03:26:21;;;;;;;8.70;3.97;;;19.80;99.90;;;;;;5004579;28;20089;-80
2023/06/10 03:28:48;;;;;;;4.93;3.78;;;19.80;99.90;;;;;;5015258;28;20103;-79
2023/06/10 03:31:16;;;;;;;4.57;3.60;;;19.70;99.90;;;;;;5004894;28;20491;-79
2023/06/10 03:33:43;;;;;;;4.80;3.55;;;19.70;99.90;;;;;;5006493;28;20564;-79
2023/06/10 03:36:10;;;;;;;4.18;3.78;;;19.70;99.90;;;;;;5006992;28;20076;-78
2023/06/10 03:38:37;;;;;;;4.10;3.60;;;19.70;99.90;;;;;;5005327;28;20089;-78
2023/06/10 03:41:03;;;;;;;9.23;3.95;;;19.60;99.90;;;;;;4999679;28;20132;-78
2023/06/10 03:43:31;;;;;;;5.18;3.83;;;19.60;99.90;;;;;;5005580;28;20054;-79
2023/06/10 03:45:58;;;;;;;4.13;3.72;;;19.60;99.90;;;;;;5006535;28;20085;-78
2023/06/10 03:48:25;;;;;;;5.00;3.60;;;19.50;99.90;;;;;;4995349;28;20054;-79
2023/06/10 03:50:52;;;;;;;4.78;4.13;;;19.50;99.90;;;;;;4996772;28;20122;-78
2023/06/10 03:53:19;;;;;;;4.93;3.78;;;19.50;99.90;;;;;;5006734;28;20046;-79
2023/06/10 03:55:45;;;;;;;4.75;3.97;;;19.50;99.90;;;;;;5002194;28;20065;-78
2023/06/10 03:58:15;;;;;;;4.68;4.18;;;19.50;99.90;;;;;;5004243;28;20049;-79
2023/06/10 04:00:42;;;;;;;7.68;3.70;;;19.50;99.90;;;;;;5020927;28;20081;-80
2023/06/10 04:03:13;;;;;;;5.10;3.92;;;19.50;99.90;;;;;;5006981;28;20053;-78
2023/06/10 04:05:41;;;;;;;9.43;3.70;;;19.50;99.90;;;;;;5006134;28;20497;-78
2023/06/10 04:08:08;;;;;;;4.32;3.53;;;19.40;99.90;;;;;;5004834;28;20072;-78
2023/06/10 04:10:35;;;;;;;5.45;4.20;;;19.40;99.90;;;;;;5004099;28;20078;-79
2023/06/10 04:13:03;;;;;;;5.53;3.78;;;19.40;99.90;;;;;;5011277;28;20069;-78
2023/06/10 04:15:32;;;;;;;3.90;3.50;;;19.40;99.90;;;;;;4999391;28;20053;-80
2023/06/10 04:18:00;;;;;;;6.60;4.50;;;19.40;99.90;;;;;;5000410;28;20049;-78
2023/06/10 04:20:28;;;;;;;6.05;3.75;;;19.40;99.90;;;;;;5003081;28;20054;-78
2023/06/10 04:22:54;;;;;;;6.18;3.58;;;19.40;99.90;;;;;;5010844;28;20086;-79
2023/06/10 04:25:21;;;;;;;8.05;3.90;;;19.40;99.90;;;;;;5021395;28;20088;-78
2023/06/10 04:27:48;;;;;;;4.55;3.80;;;19.40;99.90;;;;;;5004373;28;20125;-78
2023/06/10 04:30:16;;;;;;;4.88;4.32;;;19.50;99.90;;;;;;5010169;28;20064;-80
2023/06/10 04:32:43;;;;;;;5.05;3.72;;;19.50;99.90;;;;;;5007437;28;20069;-79
2023/06/10 04:35:12;;;;;;;5.15;3.70;;;19.50;99.90;;;;;;5007634;28;20046;-80
2023/06/10 04:37:40;;;;;;;4.55;4.05;;;19.50;99.90;;;;;;5004958;28;20043;-80
2023/06/10 04:40:07;;;;;;;4.10;3.38;;;19.50;99.90;;;;;;5011113;28;20061;-79
2023/06/10 04:42:35;;;;;;;5.50;3.72;;;19.60;99.90;;;;;;5012053;28;20046;-80
2023/06/10 04:45:03;;;;;;;4.28;3.67;;;19.60;99.90;;;;;;5002943;28;20046;-79
2023/06/10 04:47:33;;;;;;;4.00;3.50;;;19.70;99.90;;;;;;4998271;28;20053;-79
2023/06/10 04:50:01;;;;;;;8.27;4.03;;;19.70;99.90;;;;;;4997143;28;20042;-79
2023/06/10 04:52:27;;;;;;;5.63;3.90;;;19.80;99.90;;;;;;5004652;28;20087;-79
2023/06/10 04:54:54;;;;;;;4.80;3.60;;;19.90;99.90;;;;;;5010517;28;20053;-79
2023/06/10 04:57:21;;;;;;;3.90;3.50;;;20.10;99.90;;;;;;5004381;28;20077;-80
2023/06/10 04:59:48;;;;;;;5.00;3.78;;;20.20;99.90;;;;;;5008274;28;20042;-79
2023/06/10 05:02:14;;;;;;;4.80;4.03;;;20.30;99.90;;;;;;5005486;28;20057;-80
2023/06/10 05:04:41;;;;;;;4.30;3.35;;;20.50;99.90;;;;;;5010947;28;20157;-80
2023/06/10 05:07:08;;;;;;;4.25;3.47;;;20.60;99.90;;;;;;5012065;28;20060;-79
2023/06/10 05:09:35;;;;;;;5.15;3.63;;;20.80;99.90;;;;;;5005346;28;20050;-81
2023/06/10 05:12:03;;;;;;;4.50;3.55;;;20.90;99.90;;;;;;5005629;28;20046;-80
2023/06/10 05:14:29;;;;;;;4.28;3.70;;;21.10;99.90;;;;;;5013079;28;20053;-80
2023/06/10 05:16:56;;;;;;;5.00;3.55;;;21.20;99.90;;;;;;5008233;28;20454;-80
2023/06/10 05:19:23;;;;;;;5.00;3.78;;;21.30;99.90;;;;;;5004060;28;20057;-81
2023/06/10 05:21:50;;;;;;;4.60;3.20;;;21.40;99.90;;;;;;5012431;28;20072;-80
2023/06/10 05:24:16;;;;;;;5.18;3.53;;;21.50;99.90;;;;;;5012251;28;20100;-80
2023/06/10 05:26:44;;;;;;;5.13;3.50;;;21.70;99.90;;;;;;5009358;28;20053;-79
2023/06/10 05:29:11;;;;;;;4.85;3.42;;;21.70;99.90;;;;;;5012175;28;20053;-80
2023/06/10 05:31:37;;;;;;;8.48;3.47;;;21.80;99.90;;;;;;5010370;28;20038;-80
2023/06/10 05:34:05;;;;;;;4.28;3.88;;;21.90;99.90;;;;;;5026377;28;20532;-79
2023/06/10 05:36:32;;;;;;;5.28;3.20;;;21.90;99.90;;;;;;5016282;28;20045;-80
2023/06/10 05:38:59;;;;;;;4.95;3.60;;;22.00;99.90;;;;;;5006282;28;20042;-79
2023/06/10 05:41:26;;;;;;;8.13;3.75;;;22.10;99.90;;;;;;5007613;28;20082;-80
2023/06/10 05:43:52;;;;;;;3.28;2.97;;;22.10;99.90;;;;;;5017986;28;20073;-80
2023/06/10 05:46:20;;;;;;;3.40;3.10;;;22.10;99.90;;;;;;5005772;28;20136;-80
2023/06/10 05:48:46;;;;;;;4.75;3.40;;;22.10;99.90;;;;;;5014486;28;20451;-81
2023/06/10 05:51:13;;;;;;;4.53;3.47;;;22.00;99.90;;;;;;5011677;28;20045;-79
2023/06/10 05:53:40;;;;;;;4.00;3.60;;;22.10;99.90;;;;;;5011777;28;20046;-80
2023/06/10 05:56:07;;;;;;;4.50;3.40;;;22.00;99.90;;;;;;5011914;28;20104;-80
2023/06/10 05:58:33;;;;;;;4.05;3.30;;;22.00;99.90;;;;;;5006734;28;20168;-78
2023/06/10 06:01:00;;;;;;;6.53;3.67;;;22.00;99.90;;;;;;5006751;28;20510;-80
2023/06/10 06:03:28;;;;;;;5.68;3.35;;;21.90;99.90;;;;;;5008396;28;20110;-81
2023/06/10 06:05:55;;;;;;;5.53;3.20;;;21.90;99.90;;;;;;5014352;28;20046;-80
2023/06/10 06:08:22;;;;;;;4.22;3.83;;;22.00;99.90;;;;;;5008826;28;20049;-80
2023/06/10 06:10:50;;;;;;;5.63;3.75;;;21.90;99.90;;;;;;5003340;28;20046;-81
2023/06/10 06:13:16;;;;;;;5.75;3.65;;;21.90;99.90;;;;;;5002621;28;20127;-80
2023/06/10 06:15:43;;;;;;;4.65;3.58;;;21.90;99.90;;;;;;5007064;28;20071;-79
2023/06/10 06:18:10;;;;;;;4.25;3.83;;;21.90;99.90;;;;;;5007726;28;20050;-80
2023/06/10 06:20:37;;;;;;;5.65;3.40;;;21.90;99.90;;;;;;5005908;28;20069;-81
2023/06/10 06:23:04;;;;;;;4.72;3.72;;;21.90;99.90;;;;;;5011787;28;20058;-79
2023/06/10 06:25:30;;;;;;;4.20;3.47;;;21.90;99.90;;;;;;5010864;28;20057;-80
2023/06/10 06:27:57;;;;;;;6.45;3.60;;;21.90;99.90;;;;;;5025032;28;20494;-80
2023/06/10 06:30:24;;;;;;;4.20;3.60;;;21.90;99.90;;;;;;5008369;28;20078;-80
2023/06/10 06:32:51;;;;;;;4.47;3.65;;;21.90;99.90;;;;;;5006522;28;20104;-79
2023/06/10 06:35:18;;;;;;;4.38;3.78;;;21.90;99.90;;;;;;5012154;28;20041;-79
2023/06/10 06:37:45;;;;;;;4.82;3.30;;;21.90;99.90;;;;;;5005621;28;20046;-80
2023/06/10 06:40:12;;;;;;;4.32;3.55;;;21.90;99.90;;;;;;5006974;28;20058;-80
2023/06/10 06:42:39;;;;;;;4.82;3.45;;;21.90;99.90;;;;;;5000797;28;20049;-79
2023/06/10 06:45:06;;;;;;;5.50;3.75;;;22.00;99.90;;;;;;5009487;28;20140;-80
2023/06/10 06:47:33;;;;;;;4.07;3.63;;;22.00;99.90;;;;;;5009806;28;20421;-80
2023/06/10 06:50:00;;;;;;;6.82;3.53;;;22.10;99.90;;;;;;5006770;28;20082;-80
2023/06/10 06:52:27;;;;;;;4.35;3.45;;;22.10;99.90;;;;;;5009692;28;20073;-80
2023/06/10 06:54:54;;;;;;;4.53;3.50;;;22.10;99.90;;;;;;5010162;28;20045;-81
2023/06/10 06:57:20;;;;;;;5.70;4.05;;;22.10;99.90;;;;;;5011791;28;20048;-81
2023/06/10 06:59:47;;;;;;;5.25;3.83;;;22.10;99.90;;;;;;5002643;28;20073;-78
2023/06/10 07:02:14;;;;;;;5.10;3.83;;;22.20;99.90;;;;;;5000407;28;20473;-81
2023/06/10 07:04:41;;;;;;;4.70;3.75;;;22.20;99.90;;;;;;5012746;28;20042;-82
2023/06/10 07:07:09;;;;;;;4.70;3.40;;;22.20;99.90;;;;;;5009377;28;20077;-81
2023/06/10 07:09:35;;;;;;;4.65;3.50;;;22.20;99.90;;;;;;5011829;28;20041;-80
2023/06/10 07:12:02;;;;;;;5.97;3.65;;;22.20;99.90;;;;;;5000912;28;20077;-81
2023/06/10 07:14:29;;;;;;;4.65;3.53;;;22.20;99.90;;;;;;5007790;28;20564;-81
2023/06/10 07:16:56;;;;;;;5.00;4.10;;;22.30;99.90;;;;;;5004811;28;20046;-81
2023/06/10 07:19:23;;;;;;;3.75;3.45;;;22.30;99.90;;;;;;5002469;28;20053;-81
2023/06/10 07:21:49;;;;;;;4.25;3.55;;;22.30;99.90;;;;;;5007452;28;20058;-80
2023/06/10 07:24:16;;;;;;;5.97;3.60;;;22.40;99.90;;;;;;5024707;28;20455;-81
2023/06/10 07:26:43;;;;;;;6.07;3.95;;;22.30;99.90;;;;;;5009374;28;20046;-81
2023/06/10 07:29:10;;;;;;;4.30;3.83;;;22.40;99.90;;;;;;5004645;28;20050;-77
2023/06/10 07:31:36;;;;;;;5.18;3.58;;;22.40;99.90;;;;;;5001551;28;20477;-78
2023/06/10 07:34:03;;;;;;;5.68;3.85;;;22.40;99.90;;;;;;4997556;28;20485;-78
2023/06/10 07:36:30;;;;;;;4.57;3.60;;;22.50;99.90;;;;;;5006105;28;20074;-78
2023/06/10 07:38:57;;;;;;;6.93;3.83;;;22.50;99.90;;;;;;5014907;28;20050;-78
2023/06/10 07:41:25;;;;;;;4.88;3.72;;;22.60;99.90;;;;;;5000354;28;20100;-80
2023/06/10 07:43:54;;;;;;;5.20;3.85;;;22.60;99.90;;;;;;5003261;28;20403;-80
2023/06/10 07:46:21;;;;;;;4.60;3.60;;;22.60;99.90;;;;;;5004794;28;20050;-80
2023/06/10 07:48:48;;;;;;;7.00;3.45;;;22.60;99.90;;;;;;5004324;28;20046;-78
2023/06/10 07:51:16;;;;;;;6.47;4.20;;;22.60;99.90;;;;;;5010505;28;20649;-77
2023/06/10 07:53:43;;;;;;;5.65;3.65;;;22.70;99.90;;;;;;4966300;28;1059733;-78
2023/06/10 07:56:09;;;;;;;4.95;4.45;;;22.70;99.90;;;;;;5000574;28;20042;-78
2023/06/10 07:58:36;;;;;;;6.93;4.38;;;22.70;99.90;;;;;;5004729;28;20081;-79
2023/06/10 08:01:03;;;;;;;4.97;3.90;;;22.80;99.90;;;;;;5002126;28;20457;-77
2023/06/10 08:03:29;;;;;;;4.78;4.28;;;22.70;99.90;;;;;;5014108;28;20053;-78
2023/06/10 08:05:56;;;;;;;7.07;4.25;;;22.80;99.90;;;;;;5017666;28;20126;-78
2023/06/10 08:08:23;;;;;;;9.18;4.38;;;22.90;99.90;;;;;;5001883;28;20041;-78
2023/06/10 08:10:50;;;;;;;5.80;3.83;;;22.90;99.90;;;;;;4998827;28;20038;-77
2023/06/10 08:13:16;;;;;;;5.85;4.50;;;22.90;99.90;;;;;;5003672;28;20069;-78
2023/06/10 08:15:43;;;;;;;5.05;3.60;;;22.90;99.90;;;;;;5003882;28;20046;-77
2023/06/10 08:18:10;;;;;;;7.25;4.25;;;23.00;99.90;;;;;;5003038;28;20132;-77
2023/06/10 08:20:37;;;;;;;6.35;4.25;;;23.00;99.90;;;;;;5000599;28;20096;-77
2023/06/10 08:23:03;;;;;;;5.20;4.30;;;23.00;99.90;;;;;;5003945;28;20610;-78
2023/06/10 08:25:30;;;;;;;6.78;4.32;;;23.10;99.90;;;;;;5009566;28;20080;-78
2023/06/10 08:27:57;;;;;;;5.68;3.92;;;23.10;99.90;;;;;;5005080;28;20050;-78
2023/06/10 08:30:24;;;;;;;6.88;3.90;;;23.10;99.90;;;;;;5000223;28;20124;-78
2023/06/10 08:32:51;;;;;;;5.15;4.32;;;23.20;99.90;;;;;;4997476;28;20520;-79
2023/06/10 08:35:18;;;;;;;5.55;4.03;;;23.20;99.90;;;;;;5020723;28;20038;-79
2023/06/10 08:37:45;;;;;;;5.75;4.20;;;23.30;99.90;;;;;;5009434;28;20101;-78
2023/06/10 08:40:12;;;;;;;5.65;4.53;;;23.30;99.90;;;;;;4999196;28;20133;-78
2023/06/10 08:42:50;;;;;;;6.00;4.68;;;23.30;99.90;;;;;;5000397;28;20081;-78
2023/06/10 08:45:18;;;;;;;5.50;4.13;;;23.40;99.90;;;;;;5007487;28;20050;-79
2023/06/10 08:47:48;;;;;;;5.60;4.07;;;23.40;99.90;;;;;;5003835;28;20046;-77
2023/06/10 08:50:16;;;;;;;6.95;4.22;;;23.40;99.90;;;;;;5003285;28;20538;-78
2023/06/10 08:52:47;;;;;;;8.27;4.50;;;23.50;99.90;;;;;;5006125;28;20526;-79
2023/06/10 08:55:25;;;;;;;6.28;4.47;;;23.50;99.90;;;;;;5004754;28;20476;-78
2023/06/10 08:57:55;;;;;;;7.63;4.90;;;23.50;99.90;;;;;;5004717;28;20058;-78
2023/06/10 09:00:22;;;;;;;5.30;4.80;;;23.50;99.90;;;;;;5002617;28;20108;-77
2023/06/10 09:02:50;;;;;;;7.03;4.50;;;23.50;99.90;;;;;;4999703;28;20042;-80
2023/06/10 09:05:17;;;;;;;5.25;4.60;;;23.50;99.90;;;;;;5005337;28;20050;-79
2023/06/10 09:07:47;;;;;;;5.10;4.50;;;23.50;99.90;;;;;;5001140;28;20050;-80
2023/06/10 09:10:14;;;;;;;4.85;4.35;;;23.50;99.90;;;;;;5000228;28;20054;-79
2023/06/10 09:12:40;;;;;;;5.03;4.00;;;23.60;99.90;;;;;;5002503;28;20133;-79
2023/06/10 09:15:08;;;;;;;5.78;4.22;;;23.70;99.90;;;;;;5009441;28;20050;-78
2023/06/10 09:17:36;;;;;;;7.13;4.65;;;23.70;99.90;;;;;;5002881;28;20070;-78
2023/06/10 09:20:03;;;;;;;4.75;4.30;;;23.70;99.90;;;;;;5002748;28;20065;-79
2023/06/10 09:22:32;;;;;;;5.95;3.90;;;23.80;99.90;;;;;;5005811;28;20042;-78
2023/06/10 09:25:11;;;;;;;6.43;4.30;;;23.80;99.90;;;;;;5002978;28;20101;-78
2023/06/10 09:27:48;;;;;;;6.10;4.38;;;23.90;99.90;;;;;;5023177;28;20069;-79
2023/06/10 09:30:32;;;;;;;6.18;5.32;;;23.90;99.90;;;;;;5004625;28;20191;-78
2023/06/10 09:33:09;;;;;;;5.30;4.70;;;23.90;99.90;;;;;;4998580;28;20042;-79
2023/06/10 09:35:36;;;;;;;5.38;4.88;;;23.90;99.90;;;;;;5000025;28;20045;-79
2023/06/10 09:38:03;;;;;;;5.10;4.60;;;24.00;99.90;;;;;;5002359;28;20050;-79
2023/06/10 09:40:29;;;;;;;7.32;4.97;;;24.00;99.90;;;;;;5002149;28;20481;-79
2023/06/10 09:42:58;;;;;;;4.95;4.45;;;24.00;99.90;;;;;;5006022;28;20085;-79
2023/06/10 09:45:32;;;;;;;5.50;4.47;;;24.10;99.90;;;;;;5010755;28;20477;-80
2023/06/10 09:47:59;;;;;;;5.72;5.00;;;24.10;99.90;;;;;;5007859;28;20050;-79
2023/06/10 09:50:26;;;;;;;6.03;4.65;;;24.10;99.90;;;;;;5017775;28;20045;-79
2023/06/10 09:52:53;;;;;;;6.38;4.68;;;24.20;99.90;;;;;;5010302;28;20042;-79
2023/06/10 09:55:19;;;;;;;5.35;4.85;;;24.20;99.90;;;;;;5012684;28;20046;-79
2023/06/10 09:57:49;;;;;;;5.60;4.82;;;24.30;99.90;;;;;;5010789;28;20498;-80
2023/06/10 10:00:16;;;;;;;;;;;24.30;99.90;;;;;;5008852;28;20053;-78
2023/06/10 10:02:51;;;;;;;6.25;5.40;;;24.30;99.90;;;;;;5007293;28;19922;-78
2023/06/10 10:05:21;;;;;;;5.55;5.03;;;24.30;99.90;;;;;;5004703;28;20052;-79
2023/06/10 10:07:49;;;;;;;5.60;4.65;;;24.40;99.90;;;;;;5008387;28;20087;-79
2023/06/10 10:10:20;;;;;;;5.93;5.00;;;24.40;99.90;;;;;;5007087;28;20046;-79
2023/06/10 10:12:48;;;;;;;9.93;5.03;;;24.50;99.90;;;;;;5011085;28;20046;-78
2023/06/10 10:15:17;;;;;;;6.90;4.95;;;24.50;99.90;;;;;;5011388;28;20422;-77
2023/06/10 10:17:51;;;;;;;5.30;4.80;;;24.50;99.90;;;;;;5011277;28;20042;-79
2023/06/10 10:20:24;;;;;;;7.90;4.70;;;24.60;99.90;;;;;;5011499;28;20050;-79
2023/06/10 10:22:56;;;;;;;10.40;5.13;;;24.60;99.90;;;;;;5011710;28;20045;-80
2023/06/10 10:25:34;;;;;;;8.13;4.90;;;24.60;99.90;;;;;;5008737;28;20060;-79
2023/06/10 10:28:07;;;;;;;6.80;5.15;;;24.70;99.90;;;;;;5014048;28;20054;-78
2023/06/10 10:30:41;;;;;;;5.60;5.07;;;24.70;99.90;;;;;;5009168;28;20049;-79
2023/06/10 10:33:13;;;;;;;7.97;5.10;;;24.70;99.90;;;;;;5002528;28;20047;-78
2023/06/10 10:35:40;;;;;;;7.30;5.38;;;24.70;99.90;;;;;;5010979;28;20042;-79
2023/06/10 10:38:07;;;;;;;7.45;4.65;;;24.80;99.90;;;;;;5009556;28;20046;-79
2023/06/10 10:40:34;;;;;;;9.10;5.35;;;24.80;99.90;;;;;;5011626;28;20049;-79
2023/06/10 10:43:02;;;;;;;10.82;5.40;;;24.90;99.90;;;;;;5016179;28;20049;-79
2023/06/10 10:45:29;;;;;;;6.82;5.30;;;24.90;99.90;;;;;;5008083;28;20050;-79
2023/06/10 10:47:57;;;;;;;8.38;5.18;;;25.00;99.90;;;;;;5012950;28;20054;-78
2023/06/10 10:50:24;;;;;;;6.10;4.70;;;25.00;99.90;;;;;;5011395;28;20152;-79
2023/06/10 10:52:54;;;;;;;6.10;5.07;;;25.00;99.90;;;;;;5005305;28;20050;-78
2023/06/10 10:55:25;;;;;;;12.98;5.55;;;25.10;99.90;;;;;;5004383;28;20046;-79
2023/06/10 10:57:56;;;;;;;6.97;4.82;;;25.10;99.90;;;;;;5013982;28;20050;-79
2023/06/10 11:00:31;;;;;;;6.68;4.85;;;25.10;99.90;;;;;;5020278;28;20050;-79
2023/06/10 11:03:07;;;;;;;5.97;5.38;;;25.20;99.90;;;;;;5000501;28;20418;-79
2023/06/10 11:05:41;;;;;;;7.18;5.28;;;25.20;99.90;;;;;;5010120;28;20076;-79
2023/06/10 11:08:09;;;;;;;5.28;4.70;;;25.30;99.90;;;;;;5008337;28;20078;-79
2023/06/10 11:10:37;;;;;;;7.75;5.13;;;25.40;99.90;;;;;;5006534;28;20116;-77
2023/06/10 11:13:14;;;;;;;7.05;5.05;;;25.50;99.90;;;;;;5007878;28;20073;-78
2023/06/10 11:15:49;;;;;;;5.88;5.25;;;25.50;99.90;;;;;;5015128;28;20149;-79
2023/06/10 11:18:31;;;;;;;6.78;5.65;;;25.50;99.90;;;;;;5011849;28;20046;-78
2023/06/10 11:21:05;;;;;;;6.65;5.10;;;25.50;99.90;;;;;;5009086;28;20054;-78
2023/06/10 11:23:33;;;;;;;6.10;4.90;;;25.50;99.90;;;;;;5004921;28;20053;-78
2023/06/10 11:26:26;;;;;;;6.53;5.40;;;25.50;99.90;;;;;;4999985;28;20181;-78
2023/06/10 11:28:53;;;;;;;9.30;5.50;;;25.50;99.90;;;;;;5004944;28;20525;-79
2023/06/10 11:31:23;;;;;;;9.57;5.80;;;25.60;99.90;;;;;;5001678;28;20046;-78
2023/06/10 11:33:54;;;;;;;6.07;5.47;;;25.60;99.90;;;;;;5010971;28;20042;-78
2023/06/10 11:36:22;;;;;;;6.97;4.93;;;25.70;99.90;;;;;;5012850;28;20082;-80
2023/06/10 11:38:49;;;;;;;6.70;5.38;;;25.70;99.90;;;;;;5012465;28;20042;-78
2023/06/10 11:41:17;;;;;;;7.47;5.43;;;25.80;99.90;;;;;;5004795;28;20046;-78
2023/06/10 11:43:44;;;;;;;6.18;5.38;;;25.80;99.90;;;;;;5003981;28;20069;-78
2023/06/10 11:46:15;;;;;;;8.85;5.47;;;25.90;99.90;;;;;;5005079;28;20108;-78
2023/06/10 11:48:49;;;;;;;;;;;26.00;99.90;;;;;;5012263;28;20453;-79
2023/06/10 11:51:15;;;;;;;7.03;5.32;;;26.10;99.90;;;;;;5006668;28;20367;-78
2023/06/10 11:53:49;;;;;;;5.63;5.00;;;26.20;99.90;;;;;;5003170;28;20042;-77
2023/06/10 11:56:27;;;;;;;7.18;5.40;;;26.40;99.90;;;;;;4998937;28;20485;-77
2023/06/10 11:59:03;;;;;;;6.47;5.53;;;26.50;99.90;;;;;;5009636;28;20100;-77
2023/06/10 12:01:32;;;;;;;8.95;5.28;;;26.60;99.90;;;;;;5006183;28;20414;-77
2023/06/10 12:04:03;;;;;;;6.65;5.10;;;26.60;99.90;;;;;;5010416;28;20076;-78
2023/06/10 12:06:41;;;;;;;7.18;5.30;;;26.70;99.90;;;;;;5009934;28;20104;-78
2023/06/10 12:09:19;;;;;;;9.00;5.38;;;26.70;99.90;;;;;;5002943;28;20609;-78
2023/06/10 12:12:05;;;;;;;7.68;5.72;;;26.80;99.90;;;;;;5006057;28;20054;-78
2023/06/10 12:14:53;;;;;;;6.25;5.68;;;26.80;99.90;;;;;;5004677;28;20100;-79
2023/06/10 12:17:22;;;;;;;6.55;5.97;;;26.80;99.90;;;;;;5006405;28;20042;-78
2023/06/10 12:19:50;;;;;;;7.37;6.23;;;26.80;99.90;;;;;;5007256;28;20038;-77
2023/06/10 12:22:19;;;;;;;6.45;5.85;;;26.90;99.90;;;;;;5005000;28;20136;-81
2023/06/10 12:25:01;;;;;;;13.68;5.65;;;26.90;99.90;;;;;;5004323;28;20097;-78
2023/06/10 12:27:29;;;;;;;6.05;5.45;;;26.90;99.90;;;;;;5008759;28;20069;-78
2023/06/10 12:30:01;;;;;;;7.35;5.70;;;26.90;99.90;;;;;;5008017;28;20557;-79
2023/06/10 12:32:41;;;;;;;7.82;5.72;;;26.90;99.90;;;;;;5001238;28;20101;-78
2023/06/10 12:35:11;;;;;;;8.27;5.47;;;26.90;99.90;;;;;;5004119;28;20532;-79
2023/06/10 12:37:40;;;;;;;6.53;5.90;;;27.00;99.90;;;;;;5011693;28;20485;-79
2023/06/10 12:40:10;;;;;;;9.10;5.45;;;27.00;99.90;;;;;;5018385;28;20077;-80
2023/06/10 12:42:37;;;;;;;9.10;6.15;;;27.10;99.90;;;;;;5006902;28;20103;-77
2023/06/10 12:45:06;;;;;;;10.68;6.07;;;27.10;99.90;;;;;;5005931;28;20529;-77
2023/06/10 12:47:37;;;;;;;6.78;5.45;;;27.20;99.90;;;;;;5006214;28;20501;-77
2023/06/10 12:50:05;;;;;;;7.13;5.53;;;27.30;99.90;;;;;;5020291;28;20518;-78
2023/06/10 12:52:32;;;;;;;7.55;5.65;;;27.50;99.90;;;;;;5003555;28;20049;-79
2023/06/10 12:55:00;;;;;;;7.57;5.07;;;27.60;99.90;;;;;;5002958;28;20045;-77